sensor_id;sensor_type;location;lat;lon;timestamp;temperature;humidity
20566;DHT22;10441;50.884;12.064;2023-02-23T00:02:06;6.90;99.90
20566;DHT22;10441;50.884;12.064;2023-02-23T00:04:33;6.90;99.90
20566;DHT22;10441;50.884;12.064;2023-02-23T00:07:00;6.90;99.90
20566;DHT22;10441;50.884;12.064;2023-02-23T00:09:27;6.90;99.90
20566;DHT22;10441;50.884;12.064;2023-02-23T00:12:00;7.00;99.90
20566;DHT22;10441;50.884;12.064;2023-02-23T00:14:32;6.90;99.90
20566;DHT22;10441;50.884;12.064;2023-02-23T00:16:59;7.00;99.90
20566;DHT22;10441;50.884;12.064;2023-02-23T00:19:27;7.00;99.90
20566;DHT22;10441;50.884;12.064;2023-02-23T00:21:57;7.10;99.90
20566;DHT22;10441;50.884;12.064;2023-02-23T00:24:25;7.10;99.90
20566;DHT22;10441;50.884;12.064;2023-02-23T00:26:52;7.10;99.90
20566;DHT22;10441;50.884;12.064;2023-02-23T00:29:20;7.20;99.90
20566;DHT22;10441;50.884;12.064;2023-02-23T00:31:47;7.20;99.90
20566;DHT22;10441;50.884;12.064;2023-02-23T00:34:15;7.20;99.90
20566;DHT22;10441;50.884;12.064;2023-02-23T00:36:47;7.20;99.90
20566;DHT22;10441;50.884;12.064;2023-02-23T00:39:15;7.20;99.90
20566;DHT22;10441;50.884;12.064;2023-02-23T00:41:46;7.30;99.90
20566;DHT22;10441;50.884;12.064;2023-02-23T00:44:13;7.60;99.90
20566;DHT22;10441;50.884;12.064;2023-02-23T00:46:41;7.70;99.90
20566;DHT22;10441;50.884;12.064;2023-02-23T00:49:08;7.90;99.90
20566;DHT22;10441;50.884;12.064;2023-02-23T00:51:36;7.90;99.90
20566;DHT22;10441;50.884;12.064;2023-02-23T00:54:05;8.00;99.90
20566;DHT22;10441;50.884;12.064;2023-02-23T00:56:32;8.00;99.90
20566;DHT22;10441;50.884;12.064;2023-02-23T00:58:59;8.00;99.90
20566;DHT22;10441;50.884;12.064;2023-02-23T01:01:26;7.90;99.90
20566;DHT22;10441;50.884;12.064;2023-02-23T01:03:53;7.70;99.90
20566;DHT22;10441;50.884;12.064;2023-02-23T01:06:20;7.60;99.90
20566;DHT22;10441;50.884;12.064;2023-02-23T01:08:48;7.50;99.90
20566;DHT22;10441;50.884;12.064;2023-02-23T01:11:23;7.50;99.90
20566;DHT22;10441;50.884;12.064;2023-02-23T01:13:52;7.50;99.90
20566;DHT22;10441;50.884;12.064;2023-02-23T01:16:20;7.50;99.90
20566;DHT22;10441;50.884;12.064;2023-02-23T01:18:47;7.50;99.90
20566;DHT22;10441;50.884;12.064;2023-02-23T01:21:15;7.50;99.90
20566;DHT22;10441;50.884;12.064;2023-02-23T01:23:42;7.50;99.90
20566;DHT22;10441;50.884;12.064;2023-02-23T01:26:13;7.70;99.90
20566;DHT22;10441;50.884;12.064;2023-02-23T01:28:42;7.70;99.90
20566;DHT22;10441;50.884;12.064;2023-02-23T01:31:08;7.70;99.90
20566;DHT22;10441;50.884;12.064;2023-02-23T01:33:35;7.80;99.90
20566;DHT22;10441;50.884;12.064;2023-02-23T01:36:02;7.80;99.90
20566;DHT22;10441;50.884;12.064;2023-02-23T01:38:29;7.80;99.90
20566;DHT22;10441;50.884;12.064;2023-02-23T01:40:56;7.80;99.90
20566;DHT22;10441;50.884;12.064;2023-02-23T01:43:23;7.90;99.90
20566;DHT22;10441;50.884;12.064;2023-02-23T01:45:53;7.90;99.90
20566;DHT22;10441;50.884;12.064;2023-02-23T01:48:20;7.90;99.90
20566;DHT22;10441;50.884;12.064;2023-02-23T01:50:49;7.90;99.90
20566;DHT22;10441;50.884;12.064;2023-02-23T01:53:18;7.80;99.90
20566;DHT22;10441;50.884;12.064;2023-02-23T01:55:47;7.80;99.90
20566;DHT22;10441;50.884;12.064;2023-02-23T01:58:16;7.80;99.90
20566;DHT22;10441;50.884;12.064;2023-02-23T02:00:45;7.90;99.90
20566;DHT22;10441;50.884;12.064;2023-02-23T02:03:14;7.90;99.90
20566;DHT22;10441;50.884;12.064;2023-02-23T02:05:47;7.80;99.90
20566;DHT22;10441;50.884;12.064;2023-02-23T02:08:16;7.80;99.90
20566;DHT22;10441;50.884;12.064;2023-02-23T02:10:43;7.90;99.90
20566;DHT22;10441;50.884;12.064;2023-02-23T02:13:18;7.90;99.90
20566;DHT22;10441;50.884;12.064;2023-02-23T02:18:32;7.90;99.90
20566;DHT22;10441;50.884;12.064;2023-02-23T02:21:15;7.90;99.90
20566;DHT22;10441;50.884;12.064;2023-02-23T02:26:34;7.90;99.90
20566;DHT22;10441;50.884;12.064;2023-02-23T02:35:01;7.80;99.90
20566;DHT22;10441;50.884;12.064;2023-02-23T02:37:44;7.80;99.90
20566;DHT22;10441;50.884;12.064;2023-02-23T02:40:15;7.80;99.90
20566;DHT22;10441;50.884;12.064;2023-02-23T02:42:48;7.80;99.90
20566;DHT22;10441;50.884;12.064;2023-02-23T02:45:20;7.80;99.90
20566;DHT22;10441;50.884;12.064;2023-02-23T02:47:48;7.80;99.90
20566;DHT22;10441;50.884;12.064;2023-02-23T02:50:21;7.80;99.90
20566;DHT22;10441;50.884;12.064;2023-02-23T02:52:52;7.80;99.90
20566;DHT22;10441;50.884;12.064;2023-02-23T02:55:21;7.80;99.90
20566;DHT22;10441;50.884;12.064;2023-02-23T02:57:50;7.80;99.90
20566;DHT22;10441;50.884;12.064;2023-02-23T03:00:18;7.80;99.90
20566;DHT22;10441;50.884;12.064;2023-02-23T03:03:02;7.80;99.90
20566;DHT22;10441;50.884;12.064;2023-02-23T03:05:47;7.80;99.90
20566;DHT22;10441;50.884;12.064;2023-02-23T03:08:36;7.80;99.90
20566;DHT22;10441;50.884;12.064;2023-02-23T03:11:24;7.80;99.90
20566;DHT22;10441;50.884;12.064;2023-02-23T03:14:16;7.90;99.90
20566;DHT22;10441;50.884;12.064;2023-02-23T03:17:05;7.90;99.90
20566;DHT22;10441;50.884;12.064;2023-02-23T03:19:54;7.90;99.90
20566;DHT22;10441;50.884;12.064;2023-02-23T03:22:43;7.80;99.90
20566;DHT22;10441;50.884;12.064;2023-02-23T03:25:33;7.90;99.90
20566;DHT22;10441;50.884;12.064;2023-02-23T03:28:26;7.80;99.90
20566;DHT22;10441;50.884;12.064;2023-02-23T03:31:15;7.80;99.90
20566;DHT22;10441;50.884;12.064;2023-02-23T03:34:06;7.70;99.90
20566;DHT22;10441;50.884;12.064;2023-02-23T03:36:54;7.70;99.90
20566;DHT22;10441;50.884;12.064;2023-02-23T03:39:42;7.70;99.90
20566;DHT22;10441;50.884;12.064;2023-02-23T03:42:31;7.70;99.90
20566;DHT22;10441;50.884;12.064;2023-02-23T03:45:18;7.60;99.90
20566;DHT22;10441;50.884;12.064;2023-02-23T03:48:05;7.60;99.90
20566;DHT22;10441;50.884;12.064;2023-02-23T03:50:52;7.70;99.90
20566;DHT22;10441;50.884;12.064;2023-02-23T03:53:40;7.70;99.90
20566;DHT22;10441;50.884;12.064;2023-02-23T03:56:27;7.80;99.90
20566;DHT22;10441;50.884;12.064;2023-02-23T03:59:15;7.90;99.90
20566;DHT22;10441;50.884;12.064;2023-02-23T04:02:02;7.90;99.90
20566;DHT22;10441;50.884;12.064;2023-02-23T04:04:49;8.00;99.90
20566;DHT22;10441;50.884;12.064;2023-02-23T04:07:35;7.90;99.90
20566;DHT22;10441;50.884;12.064;2023-02-23T04:10:23;7.90;99.90
20566;DHT22;10441;50.884;12.064;2023-02-23T04:13:10;7.90;99.90
20566;DHT22;10441;50.884;12.064;2023-02-23T04:15:51;7.90;99.90
20566;DHT22;10441;50.884;12.064;2023-02-23T04:18:20;7.80;99.90
20566;DHT22;10441;50.884;12.064;2023-02-23T04:20:49;7.90;99.90
20566;DHT22;10441;50.884;12.064;2023-02-23T04:23:15;7.80;99.90
20566;DHT22;10441;50.884;12.064;2023-02-23T04:25:43;7.80;99.90
20566;DHT22;10441;50.884;12.064;2023-02-23T04:28:10;7.80;99.90
20566;DHT22;10441;50.884;12.064;2023-02-23T04:30:37;7.80;99.90
20566;DHT22;10441;50.884;12.064;2023-02-23T04:33:06;7.70;99.90
20566;DHT22;10441;50.884;12.064;2023-02-23T04:35:33;7.60;99.90
20566;DHT22;10441;50.884;12.064;2023-02-23T04:38:00;7.60;99.90
20566;DHT22;10441;50.884;12.064;2023-02-23T04:40:28;7.60;99.90
20566;DHT22;10441;50.884;12.064;2023-02-23T04:42:55;7.60;99.90
20566;DHT22;10441;50.884;12.064;2023-02-23T04:45:22;7.60;99.90
20566;DHT22;10441;50.884;12.064;2023-02-23T04:47:49;7.60;99.90
20566;DHT22;10441;50.884;12.064;2023-02-23T04:50:18;7.60;99.90
20566;DHT22;10441;50.884;12.064;2023-02-23T04:52:44;7.70;99.90
20566;DHT22;10441;50.884;12.064;2023-02-23T04:55:14;7.70;99.90
20566;DHT22;10441;50.884;12.064;2023-02-23T04:57:42;7.70;99.90
20566;DHT22;10441;50.884;12.064;2023-02-23T05:00:10;7.70;99.90
20566;DHT22;10441;50.884;12.064;2023-02-23T05:02:37;7.70;99.90
20566;DHT22;10441;50.884;12.064;2023-02-23T05:05:04;7.70;99.90
20566;DHT22;10441;50.884;12.064;2023-02-23T05:07:35;7.70;99.90
20566;DHT22;10441;50.884;12.064;2023-02-23T05:10:02;7.70;99.90
20566;DHT22;10441;50.884;12.064;2023-02-23T05:12:29;7.80;99.90
20566;DHT22;10441;50.884;12.064;2023-02-23T05:14:56;7.70;99.90
20566;DHT22;10441;50.884;12.064;2023-02-23T05:17:23;7.70;99.90
20566;DHT22;10441;50.884;12.064;2023-02-23T05:19:50;7.70;99.90
20566;DHT22;10441;50.884;12.064;2023-02-23T05:22:17;7.70;99.90
20566;DHT22;10441;50.884;12.064;2023-02-23T05:24:46;7.70;99.90
20566;DHT22;10441;50.884;12.064;2023-02-23T05:27:13;7.60;99.90
20566;DHT22;10441;50.884;12.064;2023-02-23T05:29:42;7.70;99.90
20566;DHT22;10441;50.884;12.064;2023-02-23T05:32:09;7.80;99.90
20566;DHT22;10441;50.884;12.064;2023-02-23T05:34:36;7.80;99.90
20566;DHT22;10441;50.884;12.064;2023-02-23T05:37:04;7.90;99.90
20566;DHT22;10441;50.884;12.064;2023-02-23T05:39:32;7.90;99.90
20566;DHT22;10441;50.884;12.064;2023-02-23T05:42:03;7.90;99.90
20566;DHT22;10441;50.884;12.064;2023-02-23T05:44:30;7.90;99.90
20566;DHT22;10441;50.884;12.064;2023-02-23T05:46:57;7.90;99.90
20566;DHT22;10441;50.884;12.064;2023-02-23T05:49:24;7.90;99.90
20566;DHT22;10441;50.884;12.064;2023-02-23T05:51:51;7.90;99.90
20566;DHT22;10441;50.884;12.064;2023-02-23T05:54:17;7.90;99.90
20566;DHT22;10441;50.884;12.064;2023-02-23T05:56:44;7.90;99.90
20566;DHT22;10441;50.884;12.064;2023-02-23T05:59:13;7.90;99.90
20566;DHT22;10441;50.884;12.064;2023-02-23T06:01:41;8.00;99.90
20566;DHT22;10441;50.884;12.064;2023-02-23T06:04:08;8.00;99.90
20566;DHT22;10441;50.884;12.064;2023-02-23T06:06:35;8.10;99.90
20566;DHT22;10441;50.884;12.064;2023-02-23T06:09:02;8.00;99.90
20566;DHT22;10441;50.884;12.064;2023-02-23T06:11:29;8.00;99.90
20566;DHT22;10441;50.884;12.064;2023-02-23T06:13:56;8.00;99.90
20566;DHT22;10441;50.884;12.064;2023-02-23T06:16:26;8.20;99.90
20566;DHT22;10441;50.884;12.064;2023-02-23T06:18:53;8.20;99.90
20566;DHT22;10441;50.884;12.064;2023-02-23T06:21:20;8.20;99.90
20566;DHT22;10441;50.884;12.064;2023-02-23T06:23:47;8.20;99.90
20566;DHT22;10441;50.884;12.064;2023-02-23T06:26:14;8.20;99.90
20566;DHT22;10441;50.884;12.064;2023-02-23T06:28:41;8.10;99.90
20566;DHT22;10441;50.884;12.064;2023-02-23T06:31:07;8.10;99.90
20566;DHT22;10441;50.884;12.064;2023-02-23T06:33:36;8.10;99.90
20566;DHT22;10441;50.884;12.064;2023-02-23T06:36:03;8.10;99.90
20566;DHT22;10441;50.884;12.064;2023-02-23T06:38:30;8.10;99.90
20566;DHT22;10441;50.884;12.064;2023-02-23T06:40:57;8.10;99.90
20566;DHT22;10441;50.884;12.064;2023-02-23T06:43:24;8.10;99.90
20566;DHT22;10441;50.884;12.064;2023-02-23T06:45:51;8.10;99.90
20566;DHT22;10441;50.884;12.064;2023-02-23T06:48:18;8.10;99.90
20566;DHT22;10441;50.884;12.064;2023-02-23T06:50:46;8.10;99.90
20566;DHT22;10441;50.884;12.064;2023-02-23T06:53:13;8.20;99.90
20566;DHT22;10441;50.884;12.064;2023-02-23T06:55:40;8.20;99.90
20566;DHT22;10441;50.884;12.064;2023-02-23T06:58:07;8.20;99.90
20566;DHT22;10441;50.884;12.064;2023-02-23T07:00:34;8.30;99.90
20566;DHT22;10441;50.884;12.064;2023-02-23T07:03:02;8.30;99.90
20566;DHT22;10441;50.884;12.064;2023-02-23T07:05:28;8.30;99.90
20566;DHT22;10441;50.884;12.064;2023-02-23T07:07:57;8.30;99.90
20566;DHT22;10441;50.884;12.064;2023-02-23T07:10:23;8.30;99.90
20566;DHT22;10441;50.884;12.064;2023-02-23T07:12:51;8.40;99.90
20566;DHT22;10441;50.884;12.064;2023-02-23T07:15:19;8.50;99.90
20566;DHT22;10441;50.884;12.064;2023-02-23T07:17:46;8.50;99.90
20566;DHT22;10441;50.884;12.064;2023-02-23T07:20:14;8.60;99.90
20566;DHT22;10441;50.884;12.064;2023-02-23T07:22:41;8.60;99.90
20566;DHT22;10441;50.884;12.064;2023-02-23T07:25:10;8.70;99.90
20566;DHT22;10441;50.884;12.064;2023-02-23T07:27:37;8.70;99.90
20566;DHT22;10441;50.884;12.064;2023-02-23T07:30:07;8.70;99.90
20566;DHT22;10441;50.884;12.064;2023-02-23T07:32:34;8.80;99.90
20566;DHT22;10441;50.884;12.064;2023-02-23T07:35:01;8.90;99.90
20566;DHT22;10441;50.884;12.064;2023-02-23T07:37:28;8.90;99.90
20566;DHT22;10441;50.884;12.064;2023-02-23T07:39:55;8.90;99.90
20566;DHT22;10441;50.884;12.064;2023-02-23T07:42:23;8.90;99.90
20566;DHT22;10441;50.884;12.064;2023-02-23T07:44:51;8.90;99.90
20566;DHT22;10441;50.884;12.064;2023-02-23T07:47:18;8.90;99.90
20566;DHT22;10441;50.884;12.064;2023-02-23T07:49:45;9.00;99.90
20566;DHT22;10441;50.884;12.064;2023-02-23T07:52:11;9.20;99.90
20566;DHT22;10441;50.884;12.064;2023-02-23T07:54:42;9.30;99.90
20566;DHT22;10441;50.884;12.064;2023-02-23T07:57:09;9.40;99.90
20566;DHT22;10441;50.884;12.064;2023-02-23T07:59:38;9.50;99.90
20566;DHT22;10441;50.884;12.064;2023-02-23T08:02:05;9.60;99.90
20566;DHT22;10441;50.884;12.064;2023-02-23T08:04:32;9.60;99.90
20566;DHT22;10441;50.884;12.064;2023-02-23T08:06:59;9.70;99.90
20566;DHT22;10441;50.884;12.064;2023-02-23T08:09:26;9.80;99.90
20566;DHT22;10441;50.884;12.064;2023-02-23T08:11:54;10.00;99.90
20566;DHT22;10441;50.884;12.064;2023-02-23T08:14:21;10.00;99.90
20566;DHT22;10441;50.884;12.064;2023-02-23T08:16:49;9.90;99.90
20566;DHT22;10441;50.884;12.064;2023-02-23T08:19:16;10.10;99.90
20566;DHT22;10441;50.884;12.064;2023-02-23T08:21:43;10.10;99.90
20566;DHT22;10441;50.884;12.064;2023-02-23T08:24:10;10.10;99.90
20566;DHT22;10441;50.884;12.064;2023-02-23T08:26:37;10.30;99.90
20566;DHT22;10441;50.884;12.064;2023-02-23T08:29:03;10.20;99.90
20566;DHT22;10441;50.884;12.064;2023-02-23T08:31:30;10.30;99.90
20566;DHT22;10441;50.884;12.064;2023-02-23T08:33:59;10.50;99.90
20566;DHT22;10441;50.884;12.064;2023-02-23T08:36:26;10.60;99.90
20566;DHT22;10441;50.884;12.064;2023-02-23T08:38:53;10.60;99.90
20566;DHT22;10441;50.884;12.064;2023-02-23T08:41:20;10.70;99.90
20566;DHT22;10441;50.884;12.064;2023-02-23T08:43:47;10.80;99.90
20566;DHT22;10441;50.884;12.064;2023-02-23T08:46:14;11.00;99.90
20566;DHT22;10441;50.884;12.064;2023-02-23T08:48:43;11.20;99.90
20566;DHT22;10441;50.884;12.064;2023-02-23T08:51:12;11.30;99.90
20566;DHT22;10441;50.884;12.064;2023-02-23T08:53:40;11.40;99.90
20566;DHT22;10441;50.884;12.064;2023-02-23T08:56:07;11.50;99.90
20566;DHT22;10441;50.884;12.064;2023-02-23T08:58:34;11.70;99.90
20566;DHT22;10441;50.884;12.064;2023-02-23T09:01:01;12.00;99.90
20566;DHT22;10441;50.884;12.064;2023-02-23T09:03:28;12.00;99.90
20566;DHT22;10441;50.884;12.064;2023-02-23T09:05:55;12.00;99.90
20566;DHT22;10441;50.884;12.064;2023-02-23T09:08:24;11.90;99.90
20566;DHT22;10441;50.884;12.064;2023-02-23T09:10:51;11.90;99.90
20566;DHT22;10441;50.884;12.064;2023-02-23T09:13:18;12.00;99.90
20566;DHT22;10441;50.884;12.064;2023-02-23T09:15:45;12.40;99.90
20566;DHT22;10441;50.884;12.064;2023-02-23T09:18:12;12.60;99.90
20566;DHT22;10441;50.884;12.064;2023-02-23T09:20:39;12.70;99.90
20566;DHT22;10441;50.884;12.064;2023-02-23T09:23:07;12.40;99.90
20566;DHT22;10441;50.884;12.064;2023-02-23T09:25:37;12.70;99.90
20566;DHT22;10441;50.884;12.064;2023-02-23T09:28:04;12.60;99.90
20566;DHT22;10441;50.884;12.064;2023-02-23T09:30:31;12.80;99.90
20566;DHT22;10441;50.884;12.064;2023-02-23T09:32:59;13.20;99.90
20566;DHT22;10441;50.884;12.064;2023-02-23T09:35:26;13.50;99.90
20566;DHT22;10441;50.884;12.064;2023-02-23T09:37:55;13.80;99.90
20566;DHT22;10441;50.884;12.064;2023-02-23T09:40:24;14.00;99.90
20566;DHT22;10441;50.884;12.064;2023-02-23T09:42:59;14.30;99.90
20566;DHT22;10441;50.884;12.064;2023-02-23T09:45:36;13.90;99.90
20566;DHT22;10441;50.884;12.064;2023-02-23T09:48:15;13.90;99.90
20566;DHT22;10441;50.884;12.064;2023-02-23T09:50:47;14.00;99.90
20566;DHT22;10441;50.884;12.064;2023-02-23T09:53:28;14.30;99.90
20566;DHT22;10441;50.884;12.064;2023-02-23T09:55:57;14.60;99.90
20566;DHT22;10441;50.884;12.064;2023-02-23T09:58:27;15.20;99.90
20566;DHT22;10441;50.884;12.064;2023-02-23T10:01:08;15.70;99.90
20566;DHT22;10441;50.884;12.064;2023-02-23T10:03:47;15.30;99.90
20566;DHT22;10441;50.884;12.064;2023-02-23T10:06:17;15.20;99.90
20566;DHT22;10441;50.884;12.064;2023-02-23T10:08:53;15.10;99.90
20566;DHT22;10441;50.884;12.064;2023-02-23T10:11:25;15.10;99.90
20566;DHT22;10441;50.884;12.064;2023-02-23T10:14:11;14.60;99.90
20566;DHT22;10441;50.884;12.064;2023-02-23T10:16:48;14.50;99.90
20566;DHT22;10441;50.884;12.064;2023-02-23T10:19:23;14.40;99.90
20566;DHT22;10441;50.884;12.064;2023-02-23T10:21:55;14.40;99.90
20566;DHT22;10441;50.884;12.064;2023-02-23T10:24:26;14.60;99.90
20566;DHT22;10441;50.884;12.064;2023-02-23T10:26:58;14.80;99.90
20566;DHT22;10441;50.884;12.064;2023-02-23T10:29:30;15.00;99.90
20566;DHT22;10441;50.884;12.064;2023-02-23T10:32:02;14.70;99.90
20566;DHT22;10441;50.884;12.064;2023-02-23T10:34:31;14.30;99.90
20566;DHT22;10441;50.884;12.064;2023-02-23T10:37:00;14.60;99.90
20566;DHT22;10441;50.884;12.064;2023-02-23T10:39:28;14.60;99.90
20566;DHT22;10441;50.884;12.064;2023-02-23T10:41:58;14.50;99.90
20566;DHT22;10441;50.884;12.064;2023-02-23T10:44:28;14.30;99.90
20566;DHT22;10441;50.884;12.064;2023-02-23T10:46:58;14.70;99.90
20566;DHT22;10441;50.884;12.064;2023-02-23T10:49:31;14.30;99.90
20566;DHT22;10441;50.884;12.064;2023-02-23T10:52:01;14.50;99.90
20566;DHT22;10441;50.884;12.064;2023-02-23T10:54:42;14.80;99.90
20566;DHT22;10441;50.884;12.064;2023-02-23T10:57:19;14.70;99.90
20566;DHT22;10441;50.884;12.064;2023-02-23T11:00:07;14.70;99.90
20566;DHT22;10441;50.884;12.064;2023-02-23T11:02:35;14.50;99.90
20566;DHT22;10441;50.884;12.064;2023-02-23T11:05:03;14.20;99.90
20566;DHT22;10441;50.884;12.064;2023-02-23T11:07:32;13.70;99.90
20566;DHT22;10441;50.884;12.064;2023-02-23T11:10:24;13.90;99.90
20566;DHT22;10441;50.884;12.064;2023-02-23T11:12:52;14.10;99.90
20566;DHT22;10441;50.884;12.064;2023-02-23T11:15:26;14.70;99.90
20566;DHT22;10441;50.884;12.064;2023-02-23T11:17:55;15.10;99.90
20566;DHT22;10441;50.884;12.064;2023-02-23T11:20:27;14.90;99.90
20566;DHT22;10441;50.884;12.064;2023-02-23T11:22:55;15.50;99.90
20566;DHT22;10441;50.884;12.064;2023-02-23T11:25:26;15.10;99.90
20566;DHT22;10441;50.884;12.064;2023-02-23T11:27:55;15.10;99.90
20566;DHT22;10441;50.884;12.064;2023-02-23T11:30:26;14.60;99.90
20566;DHT22;10441;50.884;12.064;2023-02-23T11:32:56;14.50;99.90
20566;DHT22;10441;50.884;12.064;2023-02-23T11:35:29;15.20;99.90
20566;DHT22;10441;50.884;12.064;2023-02-23T11:37:57;15.90;99.90
20566;DHT22;10441;50.884;12.064;2023-02-23T11:40:26;15.70;99.90
20566;DHT22;10441;50.884;12.064;2023-02-23T11:42:55;15.60;99.90
20566;DHT22;10441;50.884;12.064;2023-02-23T11:45:25;15.10;99.90
20566;DHT22;10441;50.884;12.064;2023-02-23T11:47:55;14.80;99.90
20566;DHT22;10441;50.884;12.064;2023-02-23T11:50:27;14.40;99.90
20566;DHT22;10441;50.884;12.064;2023-02-23T11:53:03;14.60;99.90
20566;DHT22;10441;50.884;12.064;2023-02-23T11:55:32;15.10;99.90
20566;DHT22;10441;50.884;12.064;2023-02-23T11:58:17;14.80;99.90
20566;DHT22;10441;50.884;12.064;2023-02-23T12:00:56;14.40;99.90
20566;DHT22;10441;50.884;12.064;2023-02-23T12:03:24;14.70;99.90
20566;DHT22;10441;50.884;12.064;2023-02-23T12:05:54;14.90;99.90
20566;DHT22;10441;50.884;12.064;2023-02-23T12:08:33;14.40;99.90
20566;DHT22;10441;50.884;12.064;2023-02-23T12:11:03;14.50;99.90
20566;DHT22;10441;50.884;12.064;2023-02-23T12:13:36;14.60;99.90
20566;DHT22;10441;50.884;12.064;2023-02-23T12:16:13;14.60;99.90
20566;DHT22;10441;50.884;12.064;2023-02-23T12:18:47;13.80;99.90
20566;DHT22;10441;50.884;12.064;2023-02-23T12:21:24;14.30;99.90
20566;DHT22;10441;50.884;12.064;2023-02-23T12:24:02;14.20;99.90
20566;DHT22;10441;50.884;12.064;2023-02-23T12:26:33;14.40;99.90
20566;DHT22;10441;50.884;12.064;2023-02-23T12:29:09;14.70;99.90
20566;DHT22;10441;50.884;12.064;2023-02-23T12:31:46;14.80;99.90
20566;DHT22;10441;50.884;12.064;2023-02-23T12:34:20;14.40;99.90
20566;DHT22;10441;50.884;12.064;2023-02-23T12:36:54;14.90;99.90
20566;DHT22;10441;50.884;12.064;2023-02-23T12:39:25;14.80;99.90
20566;DHT22;10441;50.884;12.064;2023-02-23T12:42:01;15.20;99.90
20566;DHT22;10441;50.884;12.064;2023-02-23T12:44:36;14.70;99.90
20566;DHT22;10441;50.884;12.064;2023-02-23T12:47:19;14.80;99.90
20566;DHT22;10441;50.884;12.064;2023-02-23T12:49:51;14.10;99.90
20566;DHT22;10441;50.884;12.064;2023-02-23T12:52:26;14.30;99.90
20566;DHT22;10441;50.884;12.064;2023-02-23T12:54:54;14.20;99.90
20566;DHT22;10441;50.884;12.064;2023-02-23T12:57:28;14.10;99.90
20566;DHT22;10441;50.884;12.064;2023-02-23T13:00:27;13.80;99.90
20566;DHT22;10441;50.884;12.064;2023-02-23T13:03:13;13.60;99.90
20566;DHT22;10441;50.884;12.064;2023-02-23T13:05:46;13.80;99.90
20566;DHT22;10441;50.884;12.064;2023-02-23T13:08:21;13.80;99.90
20566;DHT22;10441;50.884;12.064;2023-02-23T13:10:58;13.80;99.90
20566;DHT22;10441;50.884;12.064;2023-02-23T13:13:33;14.00;99.90
20566;DHT22;10441;50.884;12.064;2023-02-23T13:16:09;13.50;99.90
20566;DHT22;10441;50.884;12.064;2023-02-23T13:18:44;13.60;99.90
20566;DHT22;10441;50.884;12.064;2023-02-23T13:21:16;13.50;99.90
20566;DHT22;10441;50.884;12.064;2023-02-23T13:23:53;13.40;99.90
20566;DHT22;10441;50.884;12.064;2023-02-23T13:26:28;13.50;99.90
20566;DHT22;10441;50.884;12.064;2023-02-23T13:29:01;13.30;99.90
20566;DHT22;10441;50.884;12.064;2023-02-23T13:34:02;13.30;99.90
20566;DHT22;10441;50.884;12.064;2023-02-23T13:36:32;13.40;99.90
20566;DHT22;10441;50.884;12.064;2023-02-23T13:39:21;13.30;99.90
20566;DHT22;10441;50.884;12.064;2023-02-23T13:42:10;13.50;99.90
20566;DHT22;10441;50.884;12.064;2023-02-23T13:44:44;13.30;99.90
20566;DHT22;10441;50.884;12.064;2023-02-23T13:47:21;13.60;99.90
20566;DHT22;10441;50.884;12.064;2023-02-23T13:49:58;13.60;99.90
20566;DHT22;10441;50.884;12.064;2023-02-23T13:52:30;13.30;99.90
20566;DHT22;10441;50.884;12.064;2023-02-23T13:54:59;13.50;99.90
20566;DHT22;10441;50.884;12.064;2023-02-23T13:57:30;13.40;99.90
20566;DHT22;10441;50.884;12.064;2023-02-23T13:59:58;13.10;99.90
20566;DHT22;10441;50.884;12.064;2023-02-23T14:02:33;13.00;99.90
20566;DHT22;10441;50.884;12.064;2023-02-23T14:05:05;13.00;99.90
20566;DHT22;10441;50.884;12.064;2023-02-23T14:07:40;12.90;99.90
20566;DHT22;10441;50.884;12.064;2023-02-23T14:10:16;12.90;99.90
20566;DHT22;10441;50.884;12.064;2023-02-23T14:13:04;12.90;99.90
20566;DHT22;10441;50.884;12.064;2023-02-23T14:15:43;12.80;99.90
20566;DHT22;10441;50.884;12.064;2023-02-23T14:18:31;12.40;99.90
20566;DHT22;10441;50.884;12.064;2023-02-23T14:21:09;12.60;99.90
20566;DHT22;10441;50.884;12.064;2023-02-23T14:23:49;12.50;99.90
20566;DHT22;10441;50.884;12.064;2023-02-23T14:26:39;12.60;99.90
20566;DHT22;10441;50.884;12.064;2023-02-23T14:29:26;12.60;99.90
20566;DHT22;10441;50.884;12.064;2023-02-23T14:32:02;12.50;99.90
20566;DHT22;10441;50.884;12.064;2023-02-23T14:34:45;12.50;99.90
20566;DHT22;10441;50.884;12.064;2023-02-23T14:37:18;12.50;99.90
20566;DHT22;10441;50.884;12.064;2023-02-23T14:39:51;12.40;99.90
20566;DHT22;10441;50.884;12.064;2023-02-23T14:42:21;12.30;99.90
20566;DHT22;10441;50.884;12.064;2023-02-23T14:44:49;12.30;99.90
20566;DHT22;10441;50.884;12.064;2023-02-23T14:47:17;12.20;99.90
20566;DHT22;10441;50.884;12.064;2023-02-23T14:49:46;12.20;99.90
20566;DHT22;10441;50.884;12.064;2023-02-23T14:52:15;12.00;99.90
20566;DHT22;10441;50.884;12.064;2023-02-23T14:54:46;12.00;99.90
20566;DHT22;10441;50.884;12.064;2023-02-23T14:57:15;11.80;99.90
20566;DHT22;10441;50.884;12.064;2023-02-23T14:59:44;11.90;99.90
20566;DHT22;10441;50.884;12.064;2023-02-23T15:02:15;11.80;99.90
20566;DHT22;10441;50.884;12.064;2023-02-23T15:04:43;11.80;99.90
20566;DHT22;10441;50.884;12.064;2023-02-23T15:07:12;11.80;99.90
20566;DHT22;10441;50.884;12.064;2023-02-23T15:09:43;11.50;99.90
20566;DHT22;10441;50.884;12.064;2023-02-23T15:12:13;11.30;99.90
20566;DHT22;10441;50.884;12.064;2023-02-23T15:14:41;11.40;99.90
20566;DHT22;10441;50.884;12.064;2023-02-23T15:17:13;11.30;99.90
20566;DHT22;10441;50.884;12.064;2023-02-23T15:19:41;11.20;99.90
20566;DHT22;10441;50.884;12.064;2023-02-23T15:22:12;11.20;99.90
20566;DHT22;10441;50.884;12.064;2023-02-23T15:24:42;11.00;99.90
20566;DHT22;10441;50.884;12.064;2023-02-23T15:27:16;10.70;99.90
20566;DHT22;10441;50.884;12.064;2023-02-23T15:29:43;10.80;99.90
20566;DHT22;10441;50.884;12.064;2023-02-23T15:32:11;10.60;99.90
20566;DHT22;10441;50.884;12.064;2023-02-23T15:34:40;10.70;99.90
20566;DHT22;10441;50.884;12.064;2023-02-23T15:37:10;10.60;99.90
20566;DHT22;10441;50.884;12.064;2023-02-23T15:39:39;10.60;99.90
20566;DHT22;10441;50.884;12.064;2023-02-23T15:42:12;10.60;99.90
20566;DHT22;10441;50.884;12.064;2023-02-23T15:44:51;10.70;99.90
20566;DHT22;10441;50.884;12.064;2023-02-23T15:47:27;10.70;99.90
20566;DHT22;10441;50.884;12.064;2023-02-23T15:49:59;10.60;99.90
20566;DHT22;10441;50.884;12.064;2023-02-23T15:52:27;10.50;99.90
20566;DHT22;10441;50.884;12.064;2023-02-23T15:55:02;10.50;99.90
20566;DHT22;10441;50.884;12.064;2023-02-23T15:57:42;10.60;99.90
20566;DHT22;10441;50.884;12.064;2023-02-23T16:00:16;10.60;99.90
20566;DHT22;10441;50.884;12.064;2023-02-23T16:02:48;10.50;99.90
20566;DHT22;10441;50.884;12.064;2023-02-23T16:05:19;10.50;99.90